sensor_id;sensor_type;location;lat;lon;timestamp;P1;durP1;ratioP1;P2;durP2;ratioP2
4428;SDS011;2227;47.810;8.810;2023-07-22T04:30:17;4.03;;;1.83;;
4428;SDS011;2227;47.810;8.810;2023-07-22T04:32:50;5.45;;;2.60;;
4428;SDS011;2227;47.810;8.810;2023-07-22T04:35:17;2.65;;;1.65;;
4428;SDS011;2227;47.810;8.810;2023-07-22T04:37:43;4.60;;;2.30;;
4428;SDS011;2227;47.810;8.810;2023-07-22T04:40:11;3.85;;;1.73;;
4428;SDS011;2227;47.810;8.810;2023-07-22T04:42:40;4.60;;;2.15;;
4428;SDS011;2227;47.810;8.810;2023-07-22T04:45:08;3.78;;;2.00;;
4428;SDS011;2227;47.810;8.810;2023-07-22T04:47:36;4.70;;;1.80;;
4428;SDS011;2227;47.810;8.810;2023-07-22T04:50:03;4.93;;;1.95;;
4428;SDS011;2227;47.810;8.810;2023-07-22T04:52:30;4.00;;;1.85;;
4428;SDS011;2227;47.810;8.810;2023-07-22T04:54:57;4.68;;;2.20;;
4428;SDS011;2227;47.810;8.810;2023-07-22T04:57:23;5.25;;;2.22;;
4428;SDS011;2227;47.810;8.810;2023-07-22T04:59:50;5.78;;;2.25;;
4428;SDS011;2227;47.810;8.810;2023-07-22T05:02:17;4.57;;;2.20;;
4428;SDS011;2227;47.810;8.810;2023-07-22T05:04:44;5.10;;;1.95;;
4428;SDS011;2227;47.810;8.810;2023-07-22T05:07:11;3.50;;;1.90;;
4428;SDS011;2227;47.810;8.810;2023-07-22T05:09:37;4.35;;;2.25;;
4428;SDS011;2227;47.810;8.810;2023-07-22T05:12:04;4.43;;;2.28;;
4428;SDS011;2227;47.810;8.810;2023-07-22T05:14:32;5.97;;;2.50;;
4428;SDS011;2227;47.810;8.810;2023-07-22T05:16:58;7.60;;;2.30;;
4428;SDS011;2227;47.810;8.810;2023-07-22T05:19:25;4.50;;;2.40;;
4428;SDS011;2227;47.810;8.810;2023-07-22T05:21:52;5.22;;;2.60;;
4428;SDS011;2227;47.810;8.810;2023-07-22T05:24:19;5.70;;;2.45;;
4428;SDS011;2227;47.810;8.810;2023-07-22T05:26:47;6.43;;;2.53;;
4428;SDS011;2227;47.810;8.810;2023-07-22T05:29:34;5.53;;;2.30;;
4428;SDS011;2227;47.810;8.810;2023-07-22T05:32:00;6.63;;;2.50;;
4428;SDS011;2227;47.810;8.810;2023-07-22T05:34:27;4.47;;;2.47;;
4428;SDS011;2227;47.810;8.810;2023-07-22T05:36:54;5.10;;;2.28;;
4428;SDS011;2227;47.810;8.810;2023-07-22T05:39:21;5.15;;;2.28;;
4428;SDS011;2227;47.810;8.810;2023-07-22T05:41:48;5.70;;;2.42;;
4428;SDS011;2227;47.810;8.810;2023-07-22T05:44:15;4.90;;;2.70;;
4428;SDS011;2227;47.810;8.810;2023-07-22T05:46:41;5.22;;;2.72;;
4428;SDS011;2227;47.810;8.810;2023-07-22T05:49:09;6.85;;;2.42;;
4428;SDS011;2227;47.810;8.810;2023-07-22T05:51:37;4.70;;;2.08;;
4428;SDS011;2227;47.810;8.810;2023-07-22T05:54:03;7.28;;;2.33;;
4428;SDS011;2227;47.810;8.810;2023-07-22T05:56:31;5.47;;;2.38;;
4428;SDS011;2227;47.810;8.810;2023-07-22T05:58:57;7.28;;;2.67;;
4428;SDS011;2227;47.810;8.810;2023-07-22T06:01:24;4.65;;;2.33;;
4428;SDS011;2227;47.810;8.810;2023-07-22T06:03:51;5.22;;;2.70;;
4428;SDS011;2227;47.810;8.810;2023-07-22T06:06:19;6.35;;;2.13;;
4428;SDS011;2227;47.810;8.810;2023-07-22T06:08:49;6.07;;;2.75;;
4428;SDS011;2227;47.810;8.810;2023-07-22T06:11:16;5.20;;;2.50;;
4428;SDS011;2227;47.810;8.810;2023-07-22T06:13:43;5.72;;;2.42;;
4428;SDS011;2227;47.810;8.810;2023-07-22T06:16:10;5.82;;;2.58;;
4428;SDS011;2227;47.810;8.810;2023-07-22T06:18:37;5.50;;;2.05;;
4428;SDS011;2227;47.810;8.810;2023-07-22T06:21:04;5.45;;;2.30;;
4428;SDS011;2227;47.810;8.810;2023-07-22T06:23:31;6.65;;;2.22;;
4428;SDS011;2227;47.810;8.810;2023-07-22T06:25:58;4.40;;;1.90;;
4428;SDS011;2227;47.810;8.810;2023-07-22T06:28:24;4.95;;;2.13;;
4428;SDS011;2227;47.810;8.810;2023-07-22T06:30:51;4.10;;;1.92;;
4428;SDS011;2227;47.810;8.810;2023-07-22T06:33:18;4.97;;;1.70;;
4428;SDS011;2227;47.810;8.810;2023-07-22T06:35:45;4.32;;;1.92;;
4428;SDS011;2227;47.810;8.810;2023-07-22T06:38:16;3.60;;;1.90;;
4428;SDS011;2227;47.810;8.810;2023-07-22T06:40:43;3.03;;;1.67;;
4428;SDS011;2227;47.810;8.810;2023-07-22T06:43:10;3.60;;;1.40;;
4428;SDS011;2227;47.810;8.810;2023-07-22T06:45:36;3.58;;;1.60;;
4428;SDS011;2227;47.810;8.810;2023-07-22T06:48:03;3.30;;;1.75;;
4428;SDS011;2227;47.810;8.810;2023-07-22T06:50:30;3.63;;;1.98;;
4428;SDS011;2227;47.810;8.810;2023-07-22T06:52:57;2.97;;;1.50;;
4428;SDS011;2227;47.810;8.810;2023-07-22T06:55:24;3.38;;;1.77;;
4428;SDS011;2227;47.810;8.810;2023-07-22T06:57:50;3.75;;;1.38;;
4428;SDS011;2227;47.810;8.810;2023-07-22T07:00:17;3.17;;;1.50;;
4428;SDS011;2227;47.810;8.810;2023-07-22T07:02:45;4.75;;;1.65;;
4428;SDS011;2227;47.810;8.810;2023-07-22T07:05:12;4.07;;;1.75;;
4428;SDS011;2227;47.810;8.810;2023-07-22T07:07:39;4.20;;;1.75;;
4428;SDS011;2227;47.810;8.810;2023-07-22T07:10:07;3.83;;;1.80;;
4428;SDS011;2227;47.810;8.810;2023-07-22T07:12:34;5.22;;;1.95;;
4428;SDS011;2227;47.810;8.810;2023-07-22T07:15:01;4.35;;;2.03;;
4428;SDS011;2227;47.810;8.810;2023-07-22T07:17:28;5.18;;;1.83;;
4428;SDS011;2227;47.810;8.810;2023-07-22T07:19:54;3.92;;;1.98;;
4428;SDS011;2227;47.810;8.810;2023-07-22T07:22:21;4.05;;;1.95;;
4428;SDS011;2227;47.810;8.810;2023-07-22T07:24:48;3.78;;;1.88;;
4428;SDS011;2227;47.810;8.810;2023-07-22T07:27:15;4.18;;;2.03;;
4428;SDS011;2227;47.810;8.810;2023-07-22T07:29:42;3.78;;;2.05;;
4428;SDS011;2227;47.810;8.810;2023-07-22T07:32:11;5.22;;;2.50;;
4428;SDS011;2227;47.810;8.810;2023-07-22T07:34:38;5.65;;;2.72;;
4428;SDS011;2227;47.810;8.810;2023-07-22T07:37:05;6.35;;;2.42;;
4428;SDS011;2227;47.810;8.810;2023-07-22T07:39:32;4.28;;;1.90;;
4428;SDS011;2227;47.810;8.810;2023-07-22T07:41:59;5.15;;;2.00;;
4428;SDS011;2227;47.810;8.810;2023-07-22T07:44:25;5.22;;;2.60;;
4428;SDS011;2227;47.810;8.810;2023-07-22T07:46:52;6.07;;;2.38;;
4428;SDS011;2227;47.810;8.810;2023-07-22T07:49:19;4.65;;;2.33;;
4428;SDS011;2227;47.810;8.810;2023-07-22T07:51:46;5.10;;;2.28;;
4428;SDS011;2227;47.810;8.810;2023-07-22T07:54:12;4.70;;;2.33;;
4428;SDS011;2227;47.810;8.810;2023-07-22T07:56:39;4.78;;;2.40;;
4428;SDS011;2227;47.810;8.810;2023-07-22T07:59:06;4.60;;;2.22;;
4428;SDS011;2227;47.810;8.810;2023-07-22T08:01:35;3.63;;;1.83;;
4428;SDS011;2227;47.810;8.810;2023-07-22T08:04:03;4.72;;;2.40;;
4428;SDS011;2227;47.810;8.810;2023-07-22T08:06:30;6.15;;;2.20;;
4428;SDS011;2227;47.810;8.810;2023-07-22T08:08:57;3.50;;;1.83;;
4428;SDS011;2227;47.810;8.810;2023-07-22T08:11:25;4.93;;;2.00;;
4428;SDS011;2227;47.810;8.810;2023-07-22T08:13:52;4.70;;;2.38;;
4428;SDS011;2227;47.810;8.810;2023-07-22T08:16:18;4.15;;;2.00;;
4428;SDS011;2227;47.810;8.810;2023-07-22T08:18:46;4.07;;;1.77;;
4428;SDS011;2227;47.810;8.810;2023-07-22T08:21:13;4.32;;;1.73;;
4428;SDS011;2227;47.810;8.810;2023-07-22T08:23:40;3.65;;;1.60;;
4428;SDS011;2227;47.810;8.810;2023-07-22T08:26:07;4.55;;;1.90;;
4428;SDS011;2227;47.810;8.810;2023-07-22T08:28:34;3.28;;;1.60;;
4428;SDS011;2227;47.810;8.810;2023-07-22T08:31:01;3.78;;;1.70;;
4428;SDS011;2227;47.810;8.810;2023-07-22T08:33:28;4.15;;;1.83;;
4428;SDS011;2227;47.810;8.810;2023-07-22T08:36:00;4.00;;;1.67;;
4428;SDS011;2227;47.810;8.810;2023-07-22T08:38:28;4.30;;;1.90;;
4428;SDS011;2227;47.810;8.810;2023-07-22T08:40:55;3.97;;;2.00;;
4428;SDS011;2227;47.810;8.810;2023-07-22T08:43:22;3.47;;;1.58;;
4428;SDS011;2227;47.810;8.810;2023-07-22T08:45:50;3.22;;;1.67;;
4428;SDS011;2227;47.810;8.810;2023-07-22T08:48:18;4.95;;;1.95;;
4428;SDS011;2227;47.810;8.810;2023-07-22T08:50:52;3.95;;;1.77;;
4428;SDS011;2227;47.810;8.810;2023-07-22T08:53:21;3.35;;;1.55;;
4428;SDS011;2227;47.810;8.810;2023-07-22T08:55:51;2.63;;;1.45;;
4428;SDS011;2227;47.810;8.810;2023-07-22T08:58:19;3.47;;;1.58;;
4428;SDS011;2227;47.810;8.810;2023-07-22T09:00:46;3.83;;;1.50;;
4428;SDS011;2227;47.810;8.810;2023-07-22T09:03:14;2.95;;;1.50;;
4428;SDS011;2227;47.810;8.810;2023-07-22T09:05:42;2.90;;;1.10;;
4428;SDS011;2227;47.810;8.810;2023-07-22T09:08:11;2.92;;;1.40;;
4428;SDS011;2227;47.810;8.810;2023-07-22T09:10:38;3.25;;;1.40;;
4428;SDS011;2227;47.810;8.810;2023-07-22T09:13:05;3.70;;;1.35;;
4428;SDS011;2227;47.810;8.810;2023-07-22T09:15:36;2.75;;;1.20;;
4428;SDS011;2227;47.810;8.810;2023-07-22T09:18:03;2.75;;;1.42;;
4428;SDS011;2227;47.810;8.810;2023-07-22T09:20:30;5.00;;;1.70;;
4428;SDS011;2227;47.810;8.810;2023-07-22T09:22:58;3.22;;;1.40;;
4428;SDS011;2227;47.810;8.810;2023-07-22T09:25:39;4.18;;;1.38;;
4428;SDS011;2227;47.810;8.810;2023-07-22T09:28:07;3.03;;;1.48;;
4428;SDS011;2227;47.810;8.810;2023-07-22T09:30:34;2.95;;;1.38;;
4428;SDS011;2227;47.810;8.810;2023-07-22T09:33:03;2.83;;;1.27;;
4428;SDS011;2227;47.810;8.810;2023-07-22T09:35:34;2.85;;;1.40;;
4428;SDS011;2227;47.810;8.810;2023-07-22T09:38:10;2.45;;;1.17;;
4428;SDS011;2227;47.810;8.810;2023-07-22T09:40:39;2.72;;;1.20;;
4428;SDS011;2227;47.810;8.810;2023-07-22T09:43:09;2.22;;;1.30;;
4428;SDS011;2227;47.810;8.810;2023-07-22T09:45:37;3.03;;;1.30;;
4428;SDS011;2227;47.810;8.810;2023-07-22T09:48:04;2.05;;;1.13;;
4428;SDS011;2227;47.810;8.810;2023-07-22T09:50:32;2.60;;;1.35;;
4428;SDS011;2227;47.810;8.810;2023-07-22T09:52:59;3.72;;;1.30;;
4428;SDS011;2227;47.810;8.810;2023-07-22T09:55:30;2.45;;;1.40;;
4428;SDS011;2227;47.810;8.810;2023-07-22T09:58:04;2.72;;;1.20;;
4428;SDS011;2227;47.810;8.810;2023-07-22T10:00:37;2.22;;;1.30;;
4428;SDS011;2227;47.810;8.810;2023-07-22T10:03:10;2.72;;;1.30;;
4428;SDS011;2227;47.810;8.810;2023-07-22T10:05:41;2.60;;;0.95;;
4428;SDS011;2227;47.810;8.810;2023-07-22T10:08:09;3.03;;;1.20;;
4428;SDS011;2227;47.810;8.810;2023-07-22T10:10:38;2.30;;;1.15;;
4428;SDS011;2227;47.810;8.810;2023-07-22T10:13:05;2.35;;;1.20;;
4428;SDS011;2227;47.810;8.810;2023-07-22T10:15:32;1.92;;;1.10;;
4428;SDS011;2227;47.810;8.810;2023-07-22T10:18:01;2.53;;;1.17;;
4428;SDS011;2227;47.810;8.810;2023-07-22T10:20:29;2.65;;;1.27;;
4428;SDS011;2227;47.810;8.810;2023-07-22T10:23:00;3.33;;;1.33;;
4428;SDS011;2227;47.810;8.810;2023-07-22T10:25:28;2.90;;;1.30;;
4428;SDS011;2227;47.810;8.810;2023-07-22T10:27:56;4.47;;;1.20;;
4428;SDS011;2227;47.810;8.810;2023-07-22T10:30:23;3.42;;;1.55;;
4428;SDS011;2227;47.810;8.810;2023-07-22T10:32:53;3.08;;;1.17;;
4428;SDS011;2227;47.810;8.810;2023-07-22T10:38:18;2.85;;;1.23;;
4428;SDS011;2227;47.810;8.810;2023-07-22T10:40:53;4.32;;;1.50;;
4428;SDS011;2227;47.810;8.810;2023-07-22T10:43:24;2.75;;;1.20;;
4428;SDS011;2227;47.810;8.810;2023-07-22T10:46:10;3.80;;;1.40;;
4428;SDS011;2227;47.810;8.810;2023-07-22T10:48:39;2.58;;;1.33;;
4428;SDS011;2227;47.810;8.810;2023-07-22T10:51:10;3.20;;;1.25;;
4428;SDS011;2227;47.810;8.810;2023-07-22T10:53:41;2.50;;;1.25;;
4428;SDS011;2227;47.810;8.810;2023-07-22T11:01:23;3.50;;;1.27;;
4428;SDS011;2227;47.810;8.810;2023-07-22T11:17:13;2.20;;;1.25;;
4428;SDS011;2227;47.810;8.810;2023-07-22T11:19:41;3.50;;;1.20;;
4428;SDS011;2227;47.810;8.810;2023-07-22T11:22:07;2.90;;;1.20;;
4428;SDS011;2227;47.810;8.810;2023-07-22T11:24:35;2.20;;;0.98;;
4428;SDS011;2227;47.810;8.810;2023-07-22T11:27:03;2.10;;;1.10;;
4428;SDS011;2227;47.810;8.810;2023-07-22T11:29:31;3.42;;;1.00;;
4428;SDS011;2227;47.810;8.810;2023-07-22T11:31:58;2.40;;;1.10;;
4428;SDS011;2227;47.810;8.810;2023-07-22T11:34:25;3.65;;;1.48;;
4428;SDS011;2227;47.810;8.810;2023-07-22T11:36:53;2.22;;;1.10;;
4428;SDS011;2227;47.810;8.810;2023-07-22T11:39:21;2.70;;;1.20;;
4428;SDS011;2227;47.810;8.810;2023-07-22T11:41:50;2.92;;;1.40;;
4428;SDS011;2227;47.810;8.810;2023-07-22T11:44:19;3.13;;;1.50;;
4428;SDS011;2227;47.810;8.810;2023-07-22T11:49:30;3.95;;;1.73;;
4428;SDS011;2227;47.810;8.810;2023-07-22T11:51:58;2.10;;;1.17;;
4428;SDS011;2227;47.810;8.810;2023-07-22T11:54:26;2.92;;;1.50;;
4428;SDS011;2227;47.810;8.810;2023-07-22T11:56:54;3.63;;;1.42;;
4428;SDS011;2227;47.810;8.810;2023-07-22T11:59:34;3.00;;;1.48;;
4428;SDS011;2227;47.810;8.810;2023-07-22T12:02:06;2.67;;;1.52;;
4428;SDS011;2227;47.810;8.810;2023-07-22T12:04:33;4.20;;;1.27;;
4428;SDS011;2227;47.810;8.810;2023-07-22T12:07:03;3.03;;;1.40;;
4428;SDS011;2227;47.810;8.810;2023-07-22T12:09:30;3.88;;;1.60;;
4428;SDS011;2227;47.810;8.810;2023-07-22T12:11:58;4.05;;;1.60;;
4428;SDS011;2227;47.810;8.810;2023-07-22T12:14:32;2.78;;;1.50;;
4428;SDS011;2227;47.810;8.810;2023-07-22T12:17:02;3.03;;;1.60;;
4428;SDS011;2227;47.810;8.810;2023-07-22T12:19:34;4.65;;;1.48;;
4428;SDS011;2227;47.810;8.810;2023-07-22T12:22:01;3.40;;;1.52;;
4428;SDS011;2227;47.810;8.810;2023-07-22T12:24:28;3.03;;;1.35;;
4428;SDS011;2227;47.810;8.810;2023-07-22T12:26:55;2.78;;;1.40;;
4428;SDS011;2227;47.810;8.810;2023-07-22T12:29:22;3.35;;;1.60;;
4428;SDS011;2227;47.810;8.810;2023-07-22T12:31:49;3.72;;;1.48;;
4428;SDS011;2227;47.810;8.810;2023-07-22T12:34:16;2.65;;;1.25;;
4428;SDS011;2227;47.810;8.810;2023-07-22T12:36:42;2.97;;;1.67;;
4428;SDS011;2227;47.810;8.810;2023-07-22T12:39:09;2.88;;;1.35;;
4428;SDS011;2227;47.810;8.810;2023-07-22T12:41:37;2.88;;;1.48;;
4428;SDS011;2227;47.810;8.810;2023-07-22T12:44:04;3.20;;;1.25;;
4428;SDS011;2227;47.810;8.810;2023-07-22T12:46:31;3.75;;;1.55;;
4428;SDS011;2227;47.810;8.810;2023-07-22T12:48:57;3.08;;;1.55;;
4428;SDS011;2227;47.810;8.810;2023-07-22T12:51:24;3.05;;;1.70;;
4428;SDS011;2227;47.810;8.810;2023-07-22T12:53:51;2.88;;;1.52;;
4428;SDS011;2227;47.810;8.810;2023-07-22T12:56:18;3.60;;;1.67;;
4428;SDS011;2227;47.810;8.810;2023-07-22T12:58:45;3.28;;;1.60;;
4428;SDS011;2227;47.810;8.810;2023-07-22T13:01:12;3.85;;;1.90;;
4428;SDS011;2227;47.810;8.810;2023-07-22T13:03:39;3.97;;;1.90;;
4428;SDS011;2227;47.810;8.810;2023-07-22T13:06:06;3.42;;;1.85;;
4428;SDS011;2227;47.810;8.810;2023-07-22T13:08:34;3.08;;;1.65;;
4428;SDS011;2227;47.810;8.810;2023-07-22T13:11:00;3.63;;;1.92;;
4428;SDS011;2227;47.810;8.810;2023-07-22T13:13:27;3.45;;;1.75;;
4428;SDS011;2227;47.810;8.810;2023-07-22T13:15:54;3.75;;;1.88;;
4428;SDS011;2227;47.810;8.810;2023-07-22T13:18:21;3.30;;;1.38;;
4428;SDS011;2227;47.810;8.810;2023-07-22T13:20:48;3.10;;;1.45;;
4428;SDS011;2227;47.810;8.810;2023-07-22T13:23:14;2.67;;;1.50;;
4428;SDS011;2227;47.810;8.810;2023-07-22T13:25:41;3.70;;;2.05;;
4428;SDS011;2227;47.810;8.810;2023-07-22T13:28:08;3.60;;;1.77;;
4428;SDS011;2227;47.810;8.810;2023-07-22T13:30:34;3.67;;;1.73;;
4428;SDS011;2227;47.810;8.810;2023-07-22T13:33:01;3.85;;;1.88;;
4428;SDS011;2227;47.810;8.810;2023-07-22T13:35:29;3.20;;;1.98;;
4428;SDS011;2227;47.810;8.810;2023-07-22T13:37:56;3.40;;;1.80;;
4428;SDS011;2227;47.810;8.810;2023-07-22T13:40:23;3.55;;;1.65;;
4428;SDS011;2227;47.810;8.810;2023-07-22T13:42:49;4.68;;;1.85;;
4428;SDS011;2227;47.810;8.810;2023-07-22T13:45:16;3.03;;;1.60;;
4428;SDS011;2227;47.810;8.810;2023-07-22T13:47:43;4.13;;;1.88;;
4428;SDS011;2227;47.810;8.810;2023-07-22T13:50:10;3.47;;;1.73;;
4428;SDS011;2227;47.810;8.810;2023-07-22T13:52:36;2.70;;;1.55;;
4428;SDS011;2227;47.810;8.810;2023-07-22T13:55:04;3.53;;;1.70;;
4428;SDS011;2227;47.810;8.810;2023-07-22T13:57:31;4.50;;;1.52;;
4428;SDS011;2227;47.810;8.810;2023-07-22T13:59:57;4.68;;;2.03;;
4428;SDS011;2227;47.810;8.810;2023-07-22T14:02:24;3.20;;;1.63;;
4428;SDS011;2227;47.810;8.810;2023-07-22T14:04:51;3.85;;;1.92;;
4428;SDS011;2227;47.810;8.810;2023-07-22T14:07:18;3.15;;;1.50;;
4428;SDS011;2227;47.810;8.810;2023-07-22T14:09:44;3.45;;;1.98;;
4428;SDS011;2227;47.810;8.810;2023-07-22T14:12:11;3.65;;;2.00;;
4428;SDS011;2227;47.810;8.810;2023-07-22T14:14:38;3.85;;;2.00;;
4428;SDS011;2227;47.810;8.810;2023-07-22T14:17:05;5.88;;;1.83;;
4428;SDS011;2227;47.810;8.810;2023-07-22T14:19:32;3.70;;;1.90;;
4428;SDS011;2227;47.810;8.810;2023-07-22T14:21:58;2.92;;;1.80;;
4428;SDS011;2227;47.810;8.810;2023-07-22T14:24:25;2.60;;;1.63;;
4428;SDS011;2227;47.810;8.810;2023-07-22T14:26:53;3.10;;;1.75;;
4428;SDS011;2227;47.810;8.810;2023-07-22T14:29:20;3.83;;;1.75;;
4428;SDS011;2227;47.810;8.810;2023-07-22T14:31:47;3.03;;;1.60;;
4428;SDS011;2227;47.810;8.810;2023-07-22T14:34:13;2.65;;;1.40;;
4428;SDS011;2227;47.810;8.810;2023-07-22T14:36:40;3.47;;;1.80;;
4428;SDS011;2227;47.810;8.810;2023-07-22T14:39:10;3.33;;;1.88;;
4428;SDS011;2227;47.810;8.810;2023-07-22T14:41:40;3.30;;;1.77;;
4428;SDS011;2227;47.810;8.810;2023-07-22T14:44:07;3.08;;;2.00;;
4428;SDS011;2227;47.810;8.810;2023-07-22T14:46:34;3.35;;;2.00;;
4428;SDS011;2227;47.810;8.810;2023-07-22T14:49:02;3.67;;;1.65;;
4428;SDS011;2227;47.810;8.810;2023-07-22T14:51:29;2.70;;;1.58;;
4428;SDS011;2227;47.810;8.810;2023-07-22T14:53:56;3.00;;;1.70;;
4428;SDS011;2227;47.810;8.810;2023-07-22T14:56:23;3.33;;;1.73;;
4428;SDS011;2227;47.810;8.810;2023-07-22T14:58:50;3.33;;;1.73;;
4428;SDS011;2227;47.810;8.810;2023-07-22T15:01:16;2.63;;;1.40;;
4428;SDS011;2227;47.810;8.810;2023-07-22T15:03:43;2.65;;;1.52;;
4428;SDS011;2227;47.810;8.810;2023-07-22T15:06:10;3.78;;;1.88;;
4428;SDS011;2227;47.810;8.810;2023-07-22T15:08:37;3.67;;;1.63;;
4428;SDS011;2227;47.810;8.810;2023-07-22T15:11:03;4.10;;;1.60;;
4428;SDS011;2227;47.810;8.810;2023-07-22T15:13:30;2.78;;;1.45;;
4428;SDS011;2227;47.810;8.810;2023-07-22T15:15:57;3.60;;;1.65;;
4428;SDS011;2227;47.810;8.810;2023-07-22T15:18:24;3.08;;;1.63;;
4428;SDS011;2227;47.810;8.810;2023-07-22T15:20:51;4.13;;;1.98;;
4428;SDS011;2227;47.810;8.810;2023-07-22T15:23:18;4.68;;;1.60;;
4428;SDS011;2227;47.810;8.810;2023-07-22T15:25:50;2.67;;;1.50;;
4428;SDS011;2227;47.810;8.810;2023-07-22T15:28:17;3.35;;;1.30;;
4428;SDS011;2227;47.810;8.810;2023-07-22T15:30:43;2.72;;;1.42;;
4428;SDS011;2227;47.810;8.810;2023-07-22T15:33:10;4.00;;;1.33;;
4428;SDS011;2227;47.810;8.810;2023-07-22T15:35:37;3.63;;;1.52;;
4428;SDS011;2227;47.810;8.810;2023-07-22T15:38:04;3.35;;;1.80;;
4428;SDS011;2227;47.810;8.810;2023-07-22T15:40:31;3.35;;;1.75;;
4428;SDS011;2227;47.810;8.810;2023-07-22T15:43:02;4.07;;;1.67;;
4428;SDS011;2227;47.810;8.810;2023-07-22T15:45:29;3.72;;;1.80;;
4428;SDS011;2227;47.810;8.810;2023-07-22T15:47:56;3.88;;;2.15;;
4428;SDS011;2227;47.810;8.810;2023-07-22T15:50:23;3.03;;;1.88;;
4428;SDS011;2227;47.810;8.810;2023-07-22T15:52:49;3.53;;;2.03;;
4428;SDS011;2227;47.810;8.810;2023-07-22T15:55:16;4.45;;;1.90;;
4428;SDS011;2227;47.810;8.810;2023-07-22T15:57:43;2.97;;;1.50;;
4428;SDS011;2227;47.810;8.810;2023-07-22T16:00:11;3.25;;;1.80;;
4428;SDS011;2227;47.810;8.810;2023-07-22T16:02:39;3.53;;;1.88;;
4428;SDS011;2227;47.810;8.810;2023-07-22T16:05:06;3.10;;;1.73;;
4428;SDS011;2227;47.810;8.810;2023-07-22T16:07:47;3.50;;;1.70;;
4428;SDS011;2227;47.810;8.810;2023-07-22T16:10:14;2.92;;;1.60;;
4428;SDS011;2227;47.810;8.810;2023-07-22T16:12:41;3.17;;;1.80;;
4428;SDS011;2227;47.810;8.810;2023-07-22T16:15:08;3.00;;;1.65;;
4428;SDS011;2227;47.810;8.810;2023-07-22T16:17:35;2.85;;;1.48;;
4428;SDS011;2227;47.810;8.810;2023-07-22T16:20:02;2.65;;;1.80;;
4428;SDS011;2227;47.810;8.810;2023-07-22T16:22:29;3.78;;;1.90;;
4428;SDS011;2227;47.810;8.810;2023-07-22T16:24:59;3.10;;;1.75;;
4428;SDS011;2227;47.810;8.810;2023-07-22T16:27:26;3.80;;;1.52;;
4428;SDS011;2227;47.810;8.810;2023-07-22T16:29:52;4.30;;;1.80;;
4428;SDS011;2227;47.810;8.810;2023-07-22T16:32:20;2.90;;;1.45;;
4428;SDS011;2227;47.810;8.810;2023-07-22T16:34:46;2.95;;;1.90;;
4428;SDS011;2227;47.810;8.810;2023-07-22T16:37:13;4.63;;;1.80;;
4428;SDS011;2227;47.810;8.810;2023-07-22T16:39:40;3.03;;;1.73;;
4428;SDS011;2227;47.810;8.810;2023-07-22T16:42:06;3.80;;;1.98;;
4428;SDS011;2227;47.810;8.810;2023-07-22T16:44:33;4.70;;;3.03;;
4428;SDS011;2227;47.810;8.810;2023-07-22T16:47:00;3.25;;;1.77;;
4428;SDS011;2227;47.810;8.810;2023-07-22T16:49:27;5.50;;;3.03;;
4428;SDS011;2227;47.810;8.810;2023-07-22T16:51:54;4.13;;;1.80;;
4428;SDS011;2227;47.810;8.810;2023-07-22T16:54:21;3.97;;;1.58;;
4428;SDS011;2227;47.810;8.810;2023-07-22T16:56:48;3.08;;;1.58;;
4428;SDS011;2227;47.810;8.810;2023-07-22T16:59:14;3.30;;;1.75;;
4428;SDS011;2227;47.810;8.810;2023-07-22T17:01:41;2.75;;;1.50;;
4428;SDS011;2227;47.810;8.810;2023-07-22T17:04:08;3.50;;;1.75;;
4428;SDS011;2227;47.810;8.810;2023-07-22T17:06:37;3.10;;;1.45;;
4428;SDS011;2227;47.810;8.810;2023-07-22T17:09:04;3.30;;;1.60;;
4428;SDS011;2227;47.810;8.810;2023-07-22T17:11:30;3.45;;;1.25;;
4428;SDS011;2227;47.810;8.810;2023-07-22T17:13:58;2.72;;;1.60;;
4428;SDS011;2227;47.810;8.810;2023-07-22T17:16:24;3.65;;;1.73;;
4428;SDS011;2227;47.810;8.810;2023-07-22T17:18:51;3.40;;;1.48;;
4428;SDS011;2227;47.810;8.810;2023-07-22T17:21:18;2.55;;;1.55;;
4428;SDS011;2227;47.810;8.810;2023-07-22T17:23:44;3.85;;;1.70;;
4428;SDS011;2227;47.810;8.810;2023-07-22T17:26:11;3.30;;;1.60;;
4428;SDS011;2227;47.810;8.810;2023-07-22T17:28:38;4.28;;;1.75;;
4428;SDS011;2227;47.810;8.810;2023-07-22T17:31:04;2.97;;;1.50;;
4428;SDS011;2227;47.810;8.810;2023-07-22T17:33:31;4.55;;;2.05;;
4428;SDS011;2227;47.810;8.810;2023-07-22T17:35:58;3.05;;;1.60;;
4428;SDS011;2227;47.810;8.810;2023-07-22T17:38:25;2.35;;;1.30;;
4428;SDS011;2227;47.810;8.810;2023-07-22T17:40:51;2.33;;;1.20;;
4428;SDS011;2227;47.810;8.810;2023-07-22T17:43:18;2.78;;;1.40;;
4428;SDS011;2227;47.810;8.810;2023-07-22T17:45:45;2.72;;;1.30;;
4428;SDS011;2227;47.810;8.810;2023-07-22T17:48:12;3.20;;;1.60;;
4428;SDS011;2227;47.810;8.810;2023-07-22T17:50:38;2.95;;;1.58;;
4428;SDS011;2227;47.810;8.810;2023-07-22T17:53:05;3.05;;;1.55;;
4428;SDS011;2227;47.810;8.810;2023-07-22T17:55:32;2.30;;;1.40;;
4428;SDS011;2227;47.810;8.810;2023-07-22T17:57:58;4.18;;;1.52;;
4428;SDS011;2227;47.810;8.810;2023-07-22T18:00:25;2.50;;;1.40;;
4428;SDS011;2227;47.810;8.810;2023-07-22T18:02:52;2.53;;;1.30;;
4428;SDS011;2227;47.810;8.810;2023-07-22T18:05:19;2.38;;;1.13;;
4428;SDS011;2227;47.810;8.810;2023-07-22T18:07:47;3.13;;;1.50;;
4428;SDS011;2227;47.810;8.810;2023-07-22T18:10:14;5.55;;;1.70;;
4428;SDS011;2227;47.810;8.810;2023-07-22T18:12:41;3.42;;;1.60;;
4428;SDS011;2227;47.810;8.810;2023-07-22T18:15:08;3.65;;;1.20;;
4428;SDS011;2227;47.810;8.810;2023-07-22T18:17:35;2.20;;;1.15;;
4428;SDS011;2227;47.810;8.810;2023-07-22T18:20:01;2.67;;;1.20;;
4428;SDS011;2227;47.810;8.810;2023-07-22T18:22:31;3.25;;;1.40;;
4428;SDS011;2227;47.810;8.810;2023-07-22T18:24:58;3.78;;;1.42;;
4428;SDS011;2227;47.810;8.810;2023-07-22T18:27:25;3.03;;;1.40;;
4428;SDS011;2227;47.810;8.810;2023-07-22T18:29:51;3.58;;;1.40;;
4428;SDS011;2227;47.810;8.810;2023-07-22T18:32:18;2.67;;;1.20;;
4428;SDS011;2227;47.810;8.810;2023-07-22T18:34:45;2.85;;;1.23;;
4428;SDS011;2227;47.810;8.810;2023-07-22T18:37:11;2.10;;;1.10;;
4428;SDS011;2227;47.810;8.810;2023-07-22T18:39:38;2.45;;;1.23;;
4428;SDS011;2227;47.810;8.810;2023-07-22T18:42:06;2.25;;;1.20;;
4428;SDS011;2227;47.810;8.810;2023-07-22T18:44:32;2.67;;;1.20;;
4428;SDS011;2227;47.810;8.810;2023-07-22T18:46:59;2.53;;;1.40;;
4428;SDS011;2227;47.810;8.810;2023-07-22T18:49:26;2.72;;;1.30;;
4428;SDS011;2227;47.810;8.810;2023-07-22T18:51:57;3.40;;;1.17;;
4428;SDS011;2227;47.810;8.810;2023-07-22T18:54:23;3.88;;;1.45;;
4428;SDS011;2227;47.810;8.810;2023-07-22T18:56:50;3.03;;;1.33;;
4428;SDS011;2227;47.810;8.810;2023-07-22T18:59:17;2.55;;;1.30;;
4428;SDS011;2227;47.810;8.810;2023-07-22T19:01:43;3.05;;;1.17;;
4428;SDS011;2227;47.810;8.810;2023-07-22T19:04:11;2.97;;;1.52;;
4428;SDS011;2227;47.810;8.810;2023-07-22T19:06:38;4.07;;;1.98;;
4428;SDS011;2227;47.810;8.810;2023-07-22T19:09:04;3.67;;;1.80;;
4428;SDS011;2227;47.810;8.810;2023-07-22T19:11:31;3.30;;;1.60;;
4428;SDS011;2227;47.810;8.810;2023-07-22T19:13:58;3.22;;;1.80;;
4428;SDS011;2227;47.810;8.810;2023-07-22T19:16:25;3.47;;;1.50;;
4428;SDS011;2227;47.810;8.810;2023-07-22T19:18:52;4.13;;;1.40;;
4428;SDS011;2227;47.810;8.810;2023-07-22T19:21:18;2.72;;;1.33;;
4428;SDS011;2227;47.810;8.810;2023-07-22T19:23:45;2.60;;;1.17;;
4428;SDS011;2227;47.810;8.810;2023-07-22T19:26:12;4.57;;;1.58;;
4428;SDS011;2227;47.810;8.810;2023-07-22T19:28:39;2.72;;;1.17;;
4428;SDS011;2227;47.810;8.810;2023-07-22T19:31:05;2.30;;;1.00;;
4428;SDS011;2227;47.810;8.810;2023-07-22T19:33:32;2.15;;;1.08;;
4428;SDS011;2227;47.810;8.810;2023-07-22T19:36:00;3.22;;;1.40;;
4428;SDS011;2227;47.810;8.810;2023-07-22T19:38:35;3.63;;;1.30;;
4428;SDS011;2227;47.810;8.810;2023-07-22T19:43:34;3.47;;;1.40;;
4428;SDS011;2227;47.810;8.810;2023-07-22T19:46:05;3.05;;;1.58;;
4428;SDS011;2227;47.810;8.810;2023-07-22T19:48:39;3.65;;;1.40;;
4428;SDS011;2227;47.810;8.810;2023-07-22T19:51:07;2.22;;;1.10;;
4428;SDS011;2227;47.810;8.810;2023-07-22T19:53:35;3.50;;;1.40;;
4428;SDS011;2227;47.810;8.810;2023-07-22T19:56:02;5.75;;;1.73;;
4428;SDS011;2227;47.810;8.810;2023-07-22T19:58:34;2.97;;;1.50;;
4428;SDS011;2227;47.810;8.810;2023-07-22T20:01:02;3.00;;;1.40;;
4428;SDS011;2227;47.810;8.810;2023-07-22T20:03:30;2.90;;;1.23;;
4428;SDS011;2227;47.810;8.810;2023-07-22T20:05:58;2.42;;;1.30;;
4428;SDS011;2227;47.810;8.810;2023-07-22T20:08:24;4.40;;;2.08;;
4428;SDS011;2227;47.810;8.810;2023-07-22T20:10:52;4.50;;;1.80;;
4428;SDS011;2227;47.810;8.810;2023-07-22T20:13:20;3.85;;;1.75;;